createdAt,value
2019-05-10T00:02:37.177Z,5.63
2019-05-10T00:07:57.345Z,5.30
2019-05-10T00:13:16.774Z,6.23
2019-05-10T00:18:18.834Z,6.03
2019-05-10T00:23:20.799Z,5.90
2019-05-10T00:28:24.244Z,5.97
2019-05-10T00:33:26.156Z,6.60
2019-05-10T00:38:28.712Z,6.20
2019-05-10T00:43:30.892Z,6.20
2019-05-10T00:48:33.099Z,6.40
2019-05-10T00:53:35.060Z,6.10
2019-05-10T00:58:36.875Z,5.93
2019-05-10T01:03:39.032Z,6.70
2019-05-10T01:08:40.916Z,6.27
2019-05-10T01:13:42.721Z,7.00
2019-05-10T01:18:44.614Z,6.83
2019-05-10T01:23:46.916Z,6.77
2019-05-10T01:28:49.509Z,6.03
2019-05-10T01:33:51.461Z,6.13
2019-05-10T01:38:53.399Z,6.00
2019-05-10T01:43:55.327Z,6.03
2019-05-10T01:48:57.845Z,5.80
2019-05-10T01:53:59.807Z,5.80
2019-05-10T01:59:01.737Z,5.40
2019-05-10T02:04:03.785Z,5.37
2019-05-10T02:09:06.358Z,4.20
2019-05-10T02:14:08.568Z,3.80
2019-05-10T02:19:10.851Z,3.40
2019-05-10T02:24:14.273Z,4.03
2019-05-10T02:29:16.216Z,3.20
2019-05-10T02:34:18.531Z,3.50
2019-05-10T02:39:20.502Z,4.20
2019-05-10T02:44:24.211Z,3.80
2019-05-10T02:49:26.090Z,3.60
2019-05-10T02:54:28.514Z,4.20
2019-05-10T02:59:32.545Z,3.93
2019-05-10T03:04:35.004Z,3.70
2019-05-10T03:09:37.158Z,3.60
2019-05-10T03:14:40.732Z,3.37
2019-05-10T03:19:43.315Z,3.87
2019-05-10T03:24:45.809Z,3.37
2019-05-10T03:29:47.804Z,3.83
2019-05-10T03:34:50.096Z,3.70
2019-05-10T03:39:52.385Z,4.30
2019-05-10T03:44:55.228Z,4.33
2019-05-10T03:49:58.022Z,5.00
2019-05-10T03:55:00.427Z,4.50
2019-05-10T04:00:02.394Z,4.50
2019-05-10T04:05:05.451Z,4.53
2019-05-10T04:10:07.872Z,3.87
2019-05-10T04:15:10.006Z,4.80
2019-05-10T04:20:13.642Z,4.57
2019-05-10T04:25:16.542Z,4.73
2019-05-10T04:30:19.333Z,4.40
2019-05-10T04:35:21.266Z,4.70
2019-05-10T04:40:23.268Z,5.23
2019-05-10T04:45:25.497Z,4.73
2019-05-10T04:50:27.473Z,5.03
2019-05-10T04:55:29.546Z,5.20
2019-05-10T05:00:32.043Z,5.70
2019-05-10T05:05:34.259Z,5.03
2019-05-10T05:10:36.207Z,5.47
2019-05-10T05:15:38.772Z,5.27
2019-05-10T05:20:40.580Z,5.70
2019-05-10T05:25:43.381Z,5.53
2019-05-10T05:30:45.300Z,5.33
2019-05-10T05:35:47.672Z,5.10
2019-05-10T05:40:50.345Z,5.20
2019-05-10T05:45:52.273Z,4.93
2019-05-10T05:50:54.217Z,5.20
2019-05-10T05:56:03.028Z,3.67
2019-05-10T06:00:59.856Z,3.73
2019-05-10T06:06:01.685Z,3.70
2019-05-10T06:11:04.437Z,3.43
2019-05-10T06:16:13.220Z,3.77
2019-05-10T06:21:10.213Z,3.43
2019-05-10T06:26:21.459Z,3.40
2019-05-10T06:31:16.929Z,3.80
2019-05-10T06:36:19.673Z,3.80
2019-05-10T06:41:21.512Z,3.63
2019-05-10T06:46:29.235Z,3.60
2019-05-10T06:51:27.464Z,4.03
2019-05-10T06:56:30.147Z,4.17
2019-05-10T07:01:38.170Z,4.23
2019-05-10T07:06:38.350Z,4.20
2019-05-10T07:11:41.199Z,4.60
2019-05-10T07:16:43.169Z,4.17
2019-05-10T07:21:50.786Z,4.50
2019-05-10T07:26:49.829Z,4.83
2019-05-10T07:31:52.121Z,5.20
2019-05-10T07:36:54.462Z,6.17
2019-05-10T07:42:00.304Z,6.57
2019-05-10T07:47:00.438Z,6.37
2019-05-10T07:52:04.285Z,6.70
2019-05-10T07:57:06.193Z,8.07
2019-05-10T08:02:12.813Z,8.83
2019-05-10T08:07:11.948Z,9.57
2019-05-10T08:12:14.580Z,10.07
2019-05-10T08:17:16.383Z,9.93
2019-05-10T08:22:18.273Z,10.03
2019-05-10T08:27:23.017Z,10.47
2019-05-10T08:32:29.812Z,11.00
2019-05-10T08:37:35.980Z,11.20
2019-05-10T08:42:44.405Z,11.33
2019-05-10T08:47:37.481Z,13.07
2019-05-10T08:52:42.313Z,12.70
2019-05-10T08:57:49.205Z,13.97
2019-05-10T09:02:47.603Z,17.07
2019-05-10T09:07:51.924Z,14.20
2019-05-10T09:12:57.910Z,14.17
2019-05-10T09:18:03.289Z,14.43
2019-05-10T09:23:02.355Z,13.60
2019-05-10T09:28:11.697Z,12.87
2019-05-10T09:33:10.301Z,13.80
2019-05-10T09:38:12.651Z,13.07
2019-05-10T09:43:15.096Z,14.27
2019-05-10T09:48:17.127Z,12.83
2019-05-10T09:53:26.278Z,13.60
2019-05-10T09:58:23.792Z,12.70
2019-05-10T10:03:29.633Z,13.30
2019-05-10T10:08:29.528Z,15.17
2019-05-10T10:13:39.833Z,16.43
2019-05-10T10:18:37.153Z,18.10
2019-05-10T10:23:40.412Z,17.13
2019-05-10T10:28:42.456Z,16.23
2019-05-10T10:33:57.370Z,15.70
2019-05-10T10:38:49.653Z,16.43
2019-05-10T10:43:52.300Z,14.87
2019-05-10T10:48:55.150Z,13.27
2019-05-10T10:53:59.829Z,11.87
2019-05-10T10:59:04.406Z,10.93
2019-05-10T11:04:08.211Z,10.63
2019-05-10T11:09:16.043Z,10.60
2019-05-10T11:14:20.498Z,6.07
2019-05-10T11:19:22.659Z,6.13
2019-05-10T11:24:25.100Z,7.43
2019-05-10T11:29:28.074Z,6.30
2019-05-10T11:34:37.493Z,7.10
2019-05-10T11:39:45.160Z,8.00
2019-05-10T11:44:41.450Z,8.23
2019-05-10T11:49:42.681Z,7.90
2019-05-10T11:54:45.167Z,7.70
2019-05-10T11:59:47.981Z,9.20
2019-05-10T12:04:52.746Z,8.97
2019-05-10T12:10:03.333Z,7.53
2019-05-10T12:14:58.337Z,6.90
2019-05-10T12:20:02.450Z,6.53
2019-05-10T12:25:32.729Z,6.30
2019-05-10T12:30:11.622Z,7.00
2019-05-10T12:35:14.145Z,6.63
2019-05-10T12:40:16.696Z,5.70
2019-05-10T12:45:22.978Z,4.27
2019-05-10T12:50:24.067Z,3.40
2019-05-10T12:55:26.461Z,2.40
2019-05-10T13:00:28.384Z,2.43
2019-05-10T13:05:32.072Z,2.30
2019-05-10T13:10:37.064Z,2.50
2019-05-10T13:15:38.362Z,2.73
2019-05-10T13:20:41.178Z,2.60
2019-05-10T13:25:43.469Z,3.50
2019-05-10T13:30:45.447Z,4.00
2019-05-10T13:35:50.641Z,4.83
2019-05-10T13:40:51.313Z,4.63
2019-05-10T13:45:53.351Z,4.63
2019-05-10T13:50:55.293Z,4.90
2019-05-10T13:55:57.317Z,5.10
2019-05-10T14:00:59.224Z,5.13
2019-05-10T14:06:01.636Z,5.63
2019-05-10T14:11:03.633Z,5.87
2019-05-10T14:16:05.470Z,6.17
2019-05-10T14:21:07.551Z,6.50
2019-05-10T14:26:16.080Z,6.63
2019-05-10T14:31:14.209Z,7.60
2019-05-10T14:36:16.300Z,6.20
2019-05-10T14:41:18.108Z,6.27
2019-05-10T14:46:20.580Z,5.90
2019-05-10T14:51:40.497Z,5.40
2019-05-10T14:56:29.309Z,5.57
2019-05-10T15:01:36.897Z,4.07
2019-05-10T15:06:36.795Z,3.70
2019-05-10T15:11:39.829Z,4.03
2019-05-10T15:16:42.366Z,3.67
2019-05-10T15:21:44.765Z,3.20
2019-05-10T15:26:47.412Z,3.10
2019-05-10T15:31:49.604Z,2.43
2019-05-10T15:36:51.884Z,1.87
2019-05-10T15:41:59.076Z,1.97
2019-05-10T15:46:58.170Z,2.10
2019-05-10T15:52:16.187Z,1.50
2019-05-10T15:57:04.094Z,1.70
2019-05-10T16:02:06.240Z,2.03
2019-05-10T16:07:09.426Z,1.90
2019-05-10T16:12:12.645Z,2.83
2019-05-10T16:17:17.594Z,2.43
2019-05-10T16:22:18.705Z,2.60
2019-05-10T16:27:21.064Z,2.73
2019-05-10T16:32:29.385Z,2.73
2019-05-10T16:37:27.609Z,2.40
2019-05-10T16:42:34.512Z,2.27
2019-05-10T16:47:33.885Z,1.80
2019-05-10T16:52:35.804Z,2.40
2019-05-10T16:57:39.377Z,1.90
2019-05-10T17:02:42.609Z,2.00
2019-05-10T17:07:45.844Z,2.30
2019-05-10T17:12:47.673Z,2.13
2019-05-10T17:17:50.041Z,2.40
2019-05-10T17:22:52.298Z,2.03
2019-05-10T17:27:57.378Z,1.80
2019-05-10T17:33:03.815Z,1.93
2019-05-10T17:38:02.359Z,2.50
2019-05-10T17:43:04.598Z,2.23
2019-05-10T17:48:08.648Z,2.10
2019-05-10T17:53:10.991Z,2.50
2019-05-10T17:58:16.915Z,2.50
2019-05-10T18:03:17.881Z,2.40
2019-05-10T18:08:23.038Z,2.33
2019-05-10T18:13:26.522Z,2.37
2019-05-10T18:18:28.331Z,2.00
2019-05-10T18:23:38.392Z,2.10
2019-05-10T18:28:44.177Z,2.00
2019-05-10T18:33:54.304Z,2.27
2019-05-10T18:38:51.413Z,2.10
2019-05-10T18:43:53.338Z,2.17
2019-05-10T18:48:55.352Z,2.50
2019-05-10T18:53:57.187Z,2.20
2019-05-10T18:59:06.828Z,2.10
2019-05-10T19:04:07.334Z,2.40
2019-05-10T19:09:08.284Z,2.50
2019-05-10T19:14:10.844Z,2.73
2019-05-10T19:19:13.160Z,3.70
2019-05-10T19:24:15.587Z,2.60
2019-05-10T19:29:17.852Z,9.37
2019-05-10T19:34:20.573Z,3.03
2019-05-10T19:39:24.978Z,2.80
2019-05-10T19:44:27.605Z,3.03
2019-05-10T19:49:29.864Z,2.90
2019-05-10T19:54:31.722Z,3.30
2019-05-10T19:59:33.912Z,3.17
2019-05-10T20:04:36.988Z,3.00
2019-05-10T20:09:39.420Z,3.20
2019-05-10T20:14:41.946Z,3.33
2019-05-10T20:19:43.761Z,3.57
2019-05-10T20:24:45.676Z,3.60
2019-05-10T20:29:49.882Z,3.70
2019-05-10T20:34:51.987Z,3.30
2019-05-10T20:39:53.933Z,3.40
2019-05-10T20:45:06.792Z,3.83
2019-05-10T20:49:59.656Z,4.17
2019-05-10T20:55:01.675Z,8.90
2019-05-10T21:00:05.725Z,4.37
2019-05-10T21:05:09.006Z,4.47
2019-05-10T21:10:11.037Z,4.63
2019-05-10T21:15:13.045Z,4.10
2019-05-10T21:20:15.339Z,4.60
2019-05-10T21:25:17.415Z,4.60
2019-05-10T21:30:19.925Z,5.03
2019-05-10T21:35:22.721Z,7.53
2019-05-10T21:40:24.628Z,4.83
2019-05-10T21:45:26.518Z,5.90
2019-05-10T21:50:28.453Z,6.00
2019-05-10T21:55:30.493Z,6.10
2019-05-10T22:00:36.618Z,6.27
2019-05-10T22:05:38.747Z,6.40
2019-05-10T22:10:40.660Z,6.03
2019-05-10T22:15:44.393Z,5.93
2019-05-10T22:20:46.539Z,5.50
2019-05-10T22:25:48.966Z,6.00
2019-05-10T22:30:50.904Z,6.30
2019-05-10T22:35:52.849Z,5.67
2019-05-10T22:40:54.818Z,6.60
2019-05-10T22:45:56.866Z,6.00
2019-05-10T22:50:58.727Z,5.87
2019-05-10T22:56:01.068Z,7.00
2019-05-10T23:01:03.076Z,5.93
2019-05-10T23:06:05.600Z,5.97
2019-05-10T23:11:07.411Z,6.20
2019-05-10T23:16:09.887Z,6.67
2019-05-10T23:21:12.464Z,6.43
2019-05-10T23:26:14.280Z,6.30
2019-05-10T23:31:16.563Z,6.40
2019-05-10T23:36:19.142Z,6.60
2019-05-10T23:41:21.088Z,6.00
2019-05-10T23:46:22.945Z,5.90
2019-05-10T23:51:25.456Z,5.97
2019-05-10T23:56:28.040Z,5.90
